createdAt,value
2022-09-10T00:01:10.793Z,98.08
2022-09-10T00:03:38.397Z,97.83
2022-09-10T00:06:09.214Z,98.16
2022-09-10T00:08:37.484Z,98.07
2022-09-10T00:11:07.517Z,98.23
2022-09-10T00:13:34.934Z,97.86
2022-09-10T00:16:04.932Z,97.92
2022-09-10T00:18:33.577Z,97.90
2022-09-10T00:21:04.575Z,98.07
2022-09-10T00:23:31.694Z,98.02
2022-09-10T00:25:58.786Z,97.90
2022-09-10T00:28:28.139Z,98.17
2022-09-10T00:30:55.855Z,97.62
2022-09-10T00:33:24.298Z,97.89
2022-09-10T00:35:51.727Z,97.77
2022-09-10T00:38:19.112Z,97.94
2022-09-10T00:40:47.251Z,97.99
2022-09-10T00:43:21.620Z,98.07
2022-09-10T00:45:53.329Z,98.10
2022-09-10T00:48:29.346Z,98.26
2022-09-10T00:51:05.981Z,98.12
2022-09-10T00:53:33.981Z,98.21
2022-09-10T00:56:05.307Z,98.38
2022-09-10T00:58:32.770Z,98.00
2022-09-10T01:01:02.965Z,98.22
2022-09-10T01:03:32.822Z,98.25
2022-09-10T01:06:00.829Z,98.04
2022-09-10T01:08:28.027Z,98.30
2022-09-10T01:11:20.892Z,98.11
2022-09-10T01:14:11.135Z,98.02
2022-09-10T01:16:50.675Z,97.88
2022-09-10T01:19:46.855Z,98.15
2022-09-10T01:22:40.545Z,98.12
2022-09-10T01:25:30.901Z,97.93
2022-09-10T01:27:59.890Z,98.04
2022-09-10T01:30:30.958Z,97.98
2022-09-10T01:33:25.539Z,98.01
2022-09-10T01:36:06.321Z,97.92
2022-09-10T01:38:38.662Z,97.63
2022-09-10T01:41:07.757Z,98.01
2022-09-10T01:43:42.313Z,97.71
2022-09-10T01:46:28.423Z,97.87
2022-09-10T01:49:27.144Z,97.64
2022-09-10T01:52:15.373Z,97.98
2022-09-10T01:54:45.969Z,98.04
2022-09-10T01:57:37.971Z,98.16
2022-09-10T02:00:12.782Z,98.00
2022-09-10T02:03:04.192Z,97.95
2022-09-10T02:05:35.450Z,98.63
2022-09-10T02:08:31.351Z,98.16
2022-09-10T02:11:06.498Z,98.10
2022-09-10T02:13:37.051Z,98.00
2022-09-10T02:16:48.148Z,98.09
2022-09-10T02:19:17.071Z,98.03
2022-09-10T02:21:44.454Z,97.97
2022-09-10T02:24:13.222Z,97.99
2022-09-10T02:26:44.216Z,98.15
2022-09-10T02:29:15.091Z,98.06
2022-09-10T02:31:44.126Z,98.08
2022-09-10T02:34:13.463Z,97.70
2022-09-10T02:36:40.810Z,97.76
2022-09-10T02:39:08.494Z,97.49
2022-09-10T02:41:35.622Z,97.72
2022-09-10T02:44:04.339Z,97.58
2022-09-10T02:46:31.586Z,97.79
2022-09-10T02:48:59.152Z,97.56
2022-09-10T02:51:29.569Z,97.35
2022-09-10T02:53:56.571Z,97.52
2022-09-10T02:56:24.014Z,97.59
2022-09-10T02:58:51.306Z,97.58
2022-09-10T03:01:21.394Z,97.62
2022-09-10T03:04:00.970Z,97.41
2022-09-10T03:06:29.800Z,97.30
2022-09-10T03:08:58.572Z,97.30
2022-09-10T03:11:27.698Z,97.07
2022-09-10T03:13:55.831Z,96.81
2022-09-10T03:16:24.536Z,97.16
2022-09-10T03:18:52.599Z,97.02
2022-09-10T03:21:22.183Z,96.85
2022-09-10T03:23:50.813Z,96.42
2022-09-10T03:26:28.424Z,96.84
2022-09-10T03:28:55.991Z,96.77
2022-09-10T03:31:27.507Z,96.73
2022-09-10T03:33:55.035Z,96.77
2022-09-10T03:36:22.997Z,97.05
2022-09-10T03:38:51.087Z,96.69
2022-09-10T03:41:18.503Z,97.01
2022-09-10T03:43:46.651Z,97.02
2022-09-10T03:46:14.971Z,96.91
2022-09-10T03:48:44.054Z,96.72
2022-09-10T03:51:11.593Z,96.61
2022-09-10T03:53:39.760Z,96.36
2022-09-10T03:56:09.294Z,96.37
2022-09-10T03:58:36.579Z,96.10
2022-09-10T04:01:05.222Z,96.24
2022-09-10T04:03:36.451Z,96.32
2022-09-10T04:06:03.691Z,96.41
2022-09-10T04:08:30.921Z,96.41
2022-09-10T04:11:02.880Z,96.11
2022-09-10T04:13:31.896Z,96.35
2022-09-10T04:16:02.817Z,96.58
2022-09-10T04:18:32.273Z,96.52
2022-09-10T04:20:59.374Z,96.20
2022-09-10T04:23:26.592Z,96.21
2022-09-10T04:25:54.659Z,95.80
2022-09-10T04:28:21.726Z,95.91
2022-09-10T04:30:51.413Z,96.45
2022-09-10T04:33:20.501Z,96.25
2022-09-10T04:35:47.742Z,96.35
2022-09-10T04:38:14.850Z,96.41
2022-09-10T04:40:44.573Z,96.19
2022-09-10T04:43:11.943Z,96.60
2022-09-10T04:45:41.460Z,96.54
2022-09-10T04:48:08.728Z,96.34
2022-09-10T04:50:36.508Z,96.39
2022-09-10T04:53:08.503Z,96.21
2022-09-10T04:55:40.405Z,95.95
2022-09-10T04:58:08.293Z,96.58
2022-09-10T05:00:35.465Z,96.33
2022-09-10T05:03:05.489Z,96.76
2022-09-10T05:05:33.824Z,96.56
2022-09-10T05:08:03.571Z,96.56
2022-09-10T05:10:30.736Z,96.46
2022-09-10T05:12:57.916Z,96.60
2022-09-10T05:15:26.370Z,96.72
2022-09-10T05:17:53.777Z,96.26
2022-09-10T05:20:20.933Z,96.18
2022-09-10T05:22:51.110Z,95.90
2022-09-10T05:25:18.596Z,96.33
2022-09-10T05:27:45.861Z,96.54
2022-09-10T05:30:19.095Z,96.78
2022-09-10T05:32:47.609Z,96.17
2022-09-10T05:35:16.117Z,96.68
2022-09-10T05:37:46.045Z,97.09
2022-09-10T05:40:15.257Z,97.37
2022-09-10T05:42:43.153Z,97.33
2022-09-10T05:45:11.066Z,97.02
2022-09-10T05:47:38.654Z,97.25
2022-09-10T05:50:07.637Z,96.66
2022-09-10T05:52:35.621Z,96.49
2022-09-10T05:55:06.571Z,96.36
2022-09-10T05:57:33.736Z,96.34
2022-09-10T06:00:01.871Z,96.60
2022-09-10T06:02:30.673Z,96.39
2022-09-10T06:05:00.861Z,96.57
2022-09-10T06:07:30.113Z,95.95
2022-09-10T06:09:57.910Z,95.80
2022-09-10T06:12:34.776Z,95.56
2022-09-10T06:15:04.068Z,95.70
2022-09-10T06:17:31.370Z,95.24
2022-09-10T06:19:58.611Z,94.95
2022-09-10T06:22:25.934Z,94.93
2022-09-10T06:24:54.183Z,95.13
2022-09-10T06:27:23.652Z,94.78
2022-09-10T06:29:51.934Z,95.22
2022-09-10T06:32:19.515Z,95.00
2022-09-10T06:34:47.579Z,94.90
2022-09-10T06:37:15.041Z,95.19
2022-09-10T06:39:42.527Z,95.10
2022-09-10T06:42:10.501Z,95.06
2022-09-10T06:45:10.170Z,95.13
2022-09-10T06:48:37.806Z,95.64
2022-09-10T06:50:56.259Z,95.50
2022-09-10T06:53:29.422Z,95.60
2022-09-10T06:55:59.770Z,95.44
2022-09-10T06:58:29.145Z,95.13
2022-09-10T07:00:56.400Z,95.23
2022-09-10T07:03:24.697Z,95.04
2022-09-10T07:05:55.980Z,94.51
2022-09-10T07:08:27.516Z,94.60
2022-09-10T07:11:00.431Z,94.63
2022-09-10T07:13:27.680Z,94.89
2022-09-10T07:15:55.643Z,95.16
2022-09-10T07:18:23.663Z,94.99
2022-09-10T07:20:50.891Z,94.95
2022-09-10T07:23:20.570Z,95.29
2022-09-10T07:25:50.578Z,95.01
2022-09-10T07:28:39.183Z,95.24
2022-09-10T07:31:12.114Z,95.12
2022-09-10T07:33:39.574Z,95.25
2022-09-10T07:36:06.949Z,95.53
2022-09-10T07:38:34.459Z,95.84
2022-09-10T07:41:02.514Z,95.81
2022-09-10T07:43:29.965Z,95.64
2022-09-10T07:45:59.081Z,95.50
2022-09-10T07:48:29.459Z,95.62
2022-09-10T07:51:08.303Z,95.09
2022-09-10T07:53:36.251Z,94.89
2022-09-10T07:56:06.784Z,94.82
2022-09-10T07:58:38.455Z,94.17
2022-09-10T08:01:12.683Z,94.57
2022-09-10T08:03:41.241Z,94.08
2022-09-10T08:06:10.338Z,93.78
2022-09-10T08:08:40.360Z,94.29
2022-09-10T08:11:13.544Z,94.00
2022-09-10T08:13:47.616Z,94.36
2022-09-10T08:16:27.098Z,94.14
2022-09-10T08:18:57.543Z,94.69
2022-09-10T08:21:26.057Z,94.41
2022-09-10T08:23:55.145Z,94.70
2022-09-10T08:26:25.585Z,94.44
2022-09-10T08:28:58.190Z,95.04
2022-09-10T08:31:27.034Z,94.71
2022-09-10T08:33:59.617Z,94.43
2022-09-10T08:36:26.745Z,94.19
2022-09-10T08:38:59.819Z,93.67
2022-09-10T08:41:39.461Z,93.47
2022-09-10T08:44:38.733Z,93.02
2022-09-10T08:47:21.501Z,92.64
2022-09-10T08:50:25.175Z,92.16
2022-09-10T08:53:06.012Z,92.18
2022-09-10T08:55:38.170Z,92.05
2022-09-10T08:58:25.473Z,91.96
2022-09-10T09:00:57.914Z,92.31
2022-09-10T09:03:40.774Z,92.66
2022-09-10T09:06:38.285Z,93.41
2022-09-10T09:09:06.335Z,93.20
2022-09-10T09:12:07.532Z,92.75
2022-09-10T09:15:19.870Z,93.28
2022-09-10T09:18:02.722Z,93.71
2022-09-10T09:20:52.152Z,93.07
2022-09-10T09:23:30.520Z,93.50
2022-09-10T09:26:14.007Z,93.00
2022-09-10T09:28:53.018Z,92.53
2022-09-10T09:31:29.821Z,92.35
2022-09-10T09:34:13.495Z,93.31
2022-09-10T09:36:46.373Z,93.10
2022-09-10T09:39:25.328Z,93.39
2022-09-10T09:42:11.343Z,92.92
2022-09-10T09:44:53.856Z,93.48
2022-09-10T09:47:23.984Z,93.70
2022-09-10T09:49:52.416Z,94.13
2022-09-10T09:52:22.714Z,94.04
2022-09-10T09:57:43.253Z,93.82
2022-09-10T10:00:37.330Z,94.76
2022-09-10T10:03:15.337Z,94.56
2022-09-10T10:05:43.254Z,94.99
2022-09-10T10:08:31.345Z,95.43
2022-09-10T10:10:59.377Z,95.76
2022-09-10T10:13:40.048Z,95.78
2022-09-10T10:16:21.745Z,95.96
2022-09-10T10:18:49.612Z,95.73
2022-09-10T10:21:37.070Z,95.77
2022-09-10T10:24:04.491Z,95.79
2022-09-10T10:26:33.801Z,95.75
2022-09-10T10:29:19.812Z,95.96
2022-09-10T10:31:49.852Z,96.03
2022-09-10T10:34:32.722Z,96.37
2022-09-10T10:37:14.658Z,96.20
2022-09-10T10:40:08.651Z,96.09
2022-09-10T10:43:00.022Z,96.13
2022-09-10T10:45:52.900Z,95.88
2022-09-10T10:48:19.965Z,96.09
2022-09-10T10:51:07.371Z,96.37
2022-09-10T10:54:09.857Z,96.10
2022-09-10T10:57:09.857Z,95.93
2022-09-10T10:59:42.731Z,95.77
2022-09-10T11:02:16.064Z,95.72
2022-09-10T11:04:51.779Z,95.88
2022-09-10T11:07:42.776Z,95.86
2022-09-10T11:10:27.831Z,95.36
2022-09-10T11:13:03.576Z,95.50
2022-09-10T11:15:38.145Z,95.41
2022-09-10T11:18:20.419Z,95.68
2022-09-10T11:21:02.708Z,95.86
2022-09-10T11:23:48.297Z,96.19
2022-09-10T11:26:27.068Z,95.79
2022-09-10T11:29:13.541Z,95.55
2022-09-10T11:31:47.667Z,95.88
2022-09-10T11:34:48.024Z,96.08
2022-09-10T11:37:45.291Z,95.97
2022-09-10T11:41:09.339Z,95.85
2022-09-10T11:43:45.584Z,96.11
2022-09-10T11:46:35.783Z,95.60
2022-09-10T11:49:16.459Z,95.91
2022-09-10T11:51:45.574Z,95.79
2022-09-10T11:54:21.331Z,96.14
2022-09-10T11:56:54.561Z,96.02
2022-09-10T11:59:42.604Z,95.91
2022-09-10T12:02:21.844Z,95.54
2022-09-10T12:05:40.891Z,95.37
2022-09-10T12:08:35.894Z,95.62
2022-09-10T12:11:36.996Z,95.16
2022-09-10T12:14:08.940Z,94.71
2022-09-10T12:16:51.900Z,94.06
2022-09-10T12:19:40.301Z,94.26
2022-09-10T12:22:26.472Z,94.65
2022-09-10T12:25:02.466Z,94.35
2022-09-10T12:27:49.336Z,94.66
2022-09-10T12:30:27.739Z,94.60
2022-09-10T12:32:59.465Z,93.93
2022-09-10T12:35:32.945Z,93.06
2022-09-10T12:38:37.211Z,92.89
2022-09-10T12:41:09.262Z,92.79
2022-09-10T12:43:39.730Z,92.86
2022-09-10T12:46:09.835Z,93.08
2022-09-10T12:48:41.807Z,92.95
2022-09-10T12:51:40.752Z,91.97
2022-09-10T12:54:29.489Z,92.35
2022-09-10T12:57:17.461Z,92.42
2022-09-10T13:00:11.872Z,92.30
2022-09-10T13:02:54.351Z,91.80
2022-09-10T13:05:50.805Z,91.79
2022-09-10T13:08:20.817Z,92.03
2022-09-10T13:11:00.093Z,91.53
2022-09-10T13:13:51.940Z,91.06
2022-09-10T13:16:38.465Z,91.32
2022-09-10T13:19:14.776Z,91.37
2022-09-10T13:21:45.029Z,91.11
2022-09-10T13:24:34.704Z,91.67
2022-09-10T13:27:17.006Z,91.45
2022-09-10T13:29:47.611Z,91.60
2022-09-10T13:32:20.668Z,91.84
2022-09-10T13:35:08.300Z,91.95
2022-09-10T13:37:55.656Z,92.30
2022-09-10T13:40:51.034Z,92.23
2022-09-10T13:43:27.180Z,92.55
2022-09-10T13:46:00.718Z,91.92
2022-09-10T13:48:31.946Z,91.60
2022-09-10T13:51:08.510Z,91.31
2022-09-10T13:53:40.725Z,91.51
2022-09-10T13:56:23.095Z,91.58
2022-09-10T13:58:53.778Z,91.21
2022-09-10T14:01:21.136Z,91.18
2022-09-10T14:03:48.676Z,91.08
2022-09-10T14:06:24.385Z,91.28
2022-09-10T14:09:11.967Z,90.92
2022-09-10T14:11:42.783Z,90.80
2022-09-10T14:14:21.347Z,91.20
2022-09-10T14:16:56.297Z,91.14
2022-09-10T14:19:34.737Z,91.25
2022-09-10T14:22:07.154Z,91.80
2022-09-10T14:24:39.827Z,92.27
2022-09-10T14:27:06.934Z,92.21
2022-09-10T14:29:34.384Z,91.61
2022-09-10T14:32:28.613Z,92.31
2022-09-10T14:34:56.127Z,91.98
2022-09-10T14:37:42.114Z,92.11
2022-09-10T14:40:21.139Z,92.11
2022-09-10T14:42:50.315Z,91.16
2022-09-10T14:45:50.146Z,90.58
2022-09-10T14:48:37.218Z,90.90
2022-09-10T14:51:15.987Z,91.34
2022-09-10T14:53:45.173Z,91.46
2022-09-10T14:56:22.594Z,91.17
2022-09-10T14:58:59.302Z,91.54
2022-09-10T15:01:26.943Z,91.40
2022-09-10T15:03:54.391Z,91.34
2022-09-10T15:06:26.165Z,90.78
2022-09-10T15:08:56.401Z,90.99
2022-09-10T15:11:28.205Z,90.99
2022-09-10T15:13:59.655Z,90.98
2022-09-10T15:16:27.789Z,90.80
2022-09-10T15:18:54.863Z,90.78
2022-09-10T15:21:22.774Z,90.82
2022-09-10T15:23:49.832Z,90.47
2022-09-10T15:26:16.985Z,90.39
2022-09-10T15:28:44.170Z,90.47
2022-09-10T15:31:11.585Z,90.22
2022-09-10T15:33:38.967Z,90.00
2022-09-10T15:36:06.614Z,89.78
2022-09-10T15:38:33.894Z,89.95
2022-09-10T15:41:13.150Z,89.68
2022-09-10T15:43:45.538Z,89.63
2022-09-10T15:46:16.147Z,89.95
2022-09-10T15:48:45.299Z,90.05
2022-09-10T15:51:18.224Z,90.23
2022-09-10T15:53:46.717Z,90.15
2022-09-10T15:56:15.157Z,89.80
2022-09-10T15:58:47.822Z,90.09
2022-09-10T16:01:16.577Z,89.98
2022-09-10T16:03:47.010Z,89.55
2022-09-10T16:06:14.692Z,89.47
2022-09-10T16:08:42.376Z,89.26
2022-09-10T16:11:12.050Z,90.10
2022-09-10T16:13:39.946Z,90.18
2022-09-10T16:16:10.230Z,90.01
2022-09-10T16:18:37.351Z,90.38
2022-09-10T16:21:18.653Z,90.58
2022-09-10T16:23:47.643Z,90.77
2022-09-10T16:26:18.382Z,90.45
2022-09-10T16:28:56.574Z,90.66
2022-09-10T16:31:31.799Z,90.43
2022-09-10T16:34:03.583Z,90.27
2022-09-10T16:36:33.291Z,90.52
2022-09-10T16:39:05.339Z,90.05
2022-09-10T16:41:33.339Z,89.99
2022-09-10T16:44:01.031Z,90.58
2022-09-10T16:46:29.120Z,90.21
2022-09-10T16:48:58.812Z,90.61
2022-09-10T16:51:29.102Z,90.35
2022-09-10T16:53:57.281Z,90.49
2022-09-10T16:56:26.022Z,90.49
2022-09-10T16:58:53.420Z,90.77
2022-09-10T17:01:21.763Z,91.27
2022-09-10T17:03:50.206Z,91.13
2022-09-10T17:06:20.127Z,91.50
2022-09-10T17:08:48.096Z,91.75
2022-09-10T17:11:17.711Z,91.63
2022-09-10T17:13:46.396Z,91.75
2022-09-10T17:16:29.780Z,92.45
2022-09-10T17:19:07.305Z,92.95
2022-09-10T17:21:36.292Z,93.07
2022-09-10T17:24:05.338Z,92.94
2022-09-10T17:26:33.513Z,92.91
2022-09-10T17:29:05.107Z,93.06
2022-09-10T17:31:33.650Z,92.89
2022-09-10T17:34:01.375Z,93.14
2022-09-10T17:36:28.692Z,92.93
2022-09-10T17:38:56.742Z,92.98
2022-09-10T17:41:24.958Z,93.15
2022-09-10T17:43:52.151Z,92.37
2022-09-10T17:46:21.768Z,92.69
2022-09-10T17:48:50.101Z,92.57
2022-09-10T17:51:20.727Z,92.51
2022-09-10T17:53:48.010Z,92.54
2022-09-10T17:56:19.279Z,92.69
2022-09-10T17:58:50.010Z,92.90
2022-09-10T18:01:27.928Z,92.83
2022-09-10T18:03:55.927Z,92.71
2022-09-10T18:06:25.537Z,92.93
2022-09-10T18:08:53.376Z,93.02
2022-09-10T18:11:27.356Z,93.00
2022-09-10T18:13:56.106Z,92.46
2022-09-10T18:16:27.125Z,92.67
2022-09-10T18:18:59.786Z,92.87
2022-09-10T18:21:27.346Z,92.89
2022-09-10T18:24:05.911Z,92.65
2022-09-10T18:26:36.365Z,92.30
2022-09-10T18:29:10.548Z,92.23
2022-09-10T18:31:40.189Z,92.04
2022-09-10T18:34:11.056Z,91.99
2022-09-10T18:36:38.261Z,92.06
2022-09-10T18:39:07.192Z,92.03
2022-09-10T18:41:38.389Z,91.93
2022-09-10T18:44:10.634Z,91.60
2022-09-10T18:46:38.225Z,91.67
2022-09-10T18:49:05.853Z,91.45
2022-09-10T18:51:33.217Z,91.67
2022-09-10T18:54:01.612Z,92.16
2022-09-10T18:56:31.832Z,91.89
2022-09-10T18:59:09.387Z,91.77
2022-09-10T19:01:38.939Z,91.88
2022-09-10T19:04:07.626Z,92.29
2022-09-10T19:06:38.525Z,92.72
2022-09-10T19:09:08.465Z,92.74
2022-09-10T19:11:38.697Z,92.64
2022-09-10T19:14:09.113Z,93.00
2022-09-10T19:16:36.792Z,92.48
2022-09-10T19:19:06.860Z,92.72
2022-09-10T19:21:36.322Z,92.41
2022-09-10T19:24:04.593Z,92.31
2022-09-10T19:26:34.721Z,92.23
2022-09-10T19:29:03.019Z,92.11
2022-09-10T19:31:33.283Z,91.95
2022-09-10T19:34:03.818Z,91.77
2022-09-10T19:36:33.858Z,91.69
2022-09-10T19:39:05.705Z,91.35
2022-09-10T19:41:34.331Z,91.22
2022-09-10T19:44:02.709Z,91.35
2022-09-10T19:46:30.775Z,91.34
2022-09-10T19:48:59.981Z,91.30
2022-09-10T19:51:30.069Z,91.51
2022-09-10T19:53:58.368Z,91.55
2022-09-10T19:56:29.627Z,92.12
2022-09-10T19:58:56.945Z,92.19
2022-09-10T20:01:33.110Z,92.35
2022-09-10T20:04:01.966Z,92.30
2022-09-10T20:06:30.138Z,92.05
2022-09-10T20:08:57.591Z,92.19
2022-09-10T20:11:28.556Z,92.03
2022-09-10T20:14:15.933Z,92.25
2022-09-10T20:16:45.461Z,92.60
2022-09-10T20:19:18.525Z,92.67
2022-09-10T20:21:46.707Z,92.75
2022-09-10T20:24:14.632Z,93.10
2022-09-10T20:26:43.944Z,92.56
2022-09-10T20:29:13.678Z,92.43
2022-09-10T20:31:42.378Z,92.35
2022-09-10T20:34:19.760Z,91.94
2022-09-10T20:36:48.239Z,92.10
2022-09-10T20:39:17.437Z,92.15
2022-09-10T20:41:44.886Z,92.13
2022-09-10T20:44:14.728Z,91.96
2022-09-10T20:46:42.821Z,92.21
2022-09-10T20:49:11.728Z,91.90
2022-09-10T20:51:40.498Z,92.24
2022-09-10T20:54:15.943Z,92.74
2022-09-10T20:56:43.936Z,93.09
2022-09-10T20:59:16.287Z,92.92
2022-09-10T21:01:46.147Z,92.43
2022-09-10T21:04:14.077Z,92.66
2022-09-10T21:06:41.421Z,92.39
2022-09-10T21:09:09.197Z,92.48
2022-09-10T21:11:36.702Z,92.26
2022-09-10T21:14:06.161Z,92.33
2022-09-10T21:16:39.146Z,92.53
2022-09-10T21:19:09.866Z,92.59
2022-09-10T21:21:39.207Z,92.82
2022-09-10T21:24:10.784Z,92.59
2022-09-10T21:26:40.163Z,92.88
2022-09-10T21:29:11.670Z,92.68
2022-09-10T21:31:39.462Z,92.45
2022-09-10T21:34:07.015Z,92.39
2022-09-10T21:36:37.723Z,92.55
2022-09-10T21:39:07.452Z,92.37
2022-09-10T21:41:35.714Z,92.30
2022-09-10T21:44:05.643Z,92.40
2022-09-10T21:46:33.623Z,92.57
2022-09-10T21:49:00.894Z,92.51
2022-09-10T21:51:28.801Z,92.30
2022-09-10T21:53:57.284Z,92.21
2022-09-10T21:56:26.511Z,92.47
2022-09-10T21:58:56.004Z,92.16
2022-09-10T22:01:25.960Z,92.48
2022-09-10T22:03:55.466Z,92.55
2022-09-10T22:06:27.651Z,92.29
2022-09-10T22:09:00.574Z,92.59
2022-09-10T22:11:37.446Z,92.56
2022-09-10T22:14:07.813Z,92.37
2022-09-10T22:16:35.683Z,92.87
2022-09-10T22:19:07.089Z,92.50
2022-09-10T22:21:36.276Z,92.68
2022-09-10T22:24:03.563Z,92.79
2022-09-10T22:26:30.563Z,92.67
2022-09-10T22:29:03.584Z,92.30
2022-09-10T22:31:33.364Z,92.30
2022-09-10T22:34:06.206Z,92.64
2022-09-10T22:36:35.977Z,92.66
2022-09-10T22:39:04.957Z,92.69
2022-09-10T22:41:34.255Z,92.85
2022-09-10T22:44:01.973Z,92.75
2022-09-10T22:46:29.959Z,92.83
2022-09-10T22:48:57.564Z,92.87
2022-09-10T22:51:28.096Z,92.74
2022-09-10T22:53:56.793Z,92.78
2022-09-10T22:56:26.344Z,92.88
2022-09-10T22:58:54.843Z,92.50
2022-09-10T23:01:31.297Z,92.67
2022-09-10T23:04:00.521Z,92.64
2022-09-10T23:06:30.724Z,92.44
2022-09-10T23:09:04.509Z,92.30
2022-09-10T23:11:32.856Z,92.44
2022-09-10T23:14:02.683Z,92.37
2022-09-10T23:16:38.346Z,92.43
2022-09-10T23:19:09.762Z,92.13
2022-09-10T23:21:39.694Z,92.47
2022-09-10T23:24:10.225Z,92.45
2022-09-10T23:26:37.397Z,92.04
2022-09-10T23:29:05.823Z,92.56
2022-09-10T23:31:35.867Z,92.44
2022-09-10T23:34:10.043Z,92.43
2022-09-10T23:36:39.852Z,92.36
2022-09-10T23:39:11.404Z,92.67
2022-09-10T23:41:39.660Z,93.02
2022-09-10T23:44:07.207Z,92.61
2022-09-10T23:46:35.656Z,92.68
2022-09-10T23:49:03.955Z,92.90
2022-09-10T23:51:32.215Z,92.96
2022-09-10T23:53:59.706Z,92.57
2022-09-10T23:56:28.580Z,92.89
2022-09-10T23:58:59.526Z,92.77
